createdAt,value
2018-02-16T00:00:13.096Z,95.65
2018-02-16T00:02:39.108Z,95.73
2018-02-16T00:05:05.081Z,96.11
2018-02-16T00:07:31.156Z,96.36
2018-02-16T00:09:57.156Z,96.76
2018-02-16T00:12:23.212Z,96.94
2018-02-16T00:14:49.282Z,96.86
2018-02-16T00:17:15.332Z,96.68
2018-02-16T00:19:41.320Z,97.14
2018-02-16T00:22:07.396Z,97.36
2018-02-16T00:24:33.410Z,97.18
2018-02-16T00:26:59.472Z,97.42
2018-02-16T00:29:25.506Z,97.22
2018-02-16T00:31:51.560Z,97.72
2018-02-16T00:34:17.608Z,97.73
2018-02-16T00:36:43.670Z,97.60
2018-02-16T00:39:09.740Z,97.40
2018-02-16T00:41:35.777Z,97.57
2018-02-16T00:44:01.785Z,97.68
2018-02-16T00:46:27.804Z,97.99
2018-02-16T00:48:53.808Z,98.11
2018-02-16T00:51:19.857Z,98.09
2018-02-16T00:53:45.843Z,97.93
2018-02-16T00:56:11.897Z,97.91
2018-02-16T00:58:37.957Z,98.11
2018-02-16T01:01:03.949Z,98.08
2018-02-16T01:03:30.026Z,98.17
2018-02-16T01:05:56.033Z,98.02
2018-02-16T01:08:22.079Z,97.91
2018-02-16T01:10:48.105Z,97.85
2018-02-16T01:13:14.106Z,97.72
2018-02-16T01:15:40.137Z,97.51
2018-02-16T01:18:06.126Z,97.45
2018-02-16T01:20:32.195Z,97.43
2018-02-16T01:22:58.174Z,97.29
2018-02-16T01:25:24.113Z,97.24
2018-02-16T01:27:50.154Z,97.25
2018-02-16T01:30:16.102Z,97.06
2018-02-16T01:32:42.185Z,96.95
2018-02-16T01:35:08.252Z,96.81
2018-02-16T01:37:34.669Z,96.71
2018-02-16T01:40:00.688Z,96.70
2018-02-16T01:42:26.716Z,96.63
2018-02-16T01:44:52.892Z,96.90
2018-02-16T01:47:18.913Z,97.15
2018-02-16T01:49:51.756Z,97.43
2018-02-16T01:52:17.787Z,97.30
2018-02-16T01:54:43.830Z,97.60
2018-02-16T01:57:09.808Z,97.65
2018-02-16T01:59:35.793Z,97.72
2018-02-16T02:02:01.842Z,97.42
2018-02-16T02:04:27.854Z,97.37
2018-02-16T02:06:53.877Z,97.29
2018-02-16T02:09:19.871Z,97.45
2018-02-16T02:11:45.912Z,97.35
2018-02-16T02:14:11.896Z,97.32
2018-02-16T02:16:37.945Z,97.68
2018-02-16T02:19:03.949Z,97.68
2018-02-16T02:21:29.996Z,97.78
2018-02-16T02:23:56.093Z,97.78
2018-02-16T02:26:22.116Z,97.91
2018-02-16T02:28:48.280Z,98.06
2018-02-16T02:31:14.272Z,98.05
2018-02-16T02:33:40.297Z,98.35
2018-02-16T02:36:06.294Z,98.33
2018-02-16T02:38:32.278Z,98.47
2018-02-16T02:40:58.289Z,98.60
2018-02-16T02:43:24.269Z,98.66
2018-02-16T02:45:50.238Z,98.62
2018-02-16T02:48:16.261Z,98.45
2018-02-16T02:50:42.299Z,98.26
2018-02-16T02:53:08.267Z,98.13
2018-02-16T02:55:34.308Z,98.01
2018-02-16T02:58:00.297Z,97.99
2018-02-16T03:00:26.354Z,98.21
2018-02-16T03:02:52.362Z,98.04
2018-02-16T03:05:18.413Z,97.88
2018-02-16T03:07:44.437Z,97.81
2018-02-16T03:10:10.401Z,97.76
2018-02-16T03:12:36.409Z,97.31
2018-02-16T03:15:02.547Z,96.88
2018-02-16T03:17:28.489Z,95.96
2018-02-16T03:19:54.573Z,95.95
2018-02-16T03:22:20.588Z,96.28
2018-02-16T03:24:46.568Z,96.47
2018-02-16T03:27:12.571Z,96.34
2018-02-16T03:29:38.549Z,96.06
2018-02-16T03:32:04.565Z,95.48
2018-02-16T03:34:30.581Z,95.64
2018-02-16T03:36:56.616Z,95.91
2018-02-16T03:39:22.684Z,96.03
2018-02-16T03:41:48.688Z,96.13
2018-02-16T03:44:14.681Z,96.45
2018-02-16T03:46:40.645Z,96.57
2018-02-16T03:49:06.704Z,96.46
2018-02-16T03:51:32.681Z,96.43
2018-02-16T03:53:58.729Z,97.24
2018-02-16T03:56:24.824Z,97.64
2018-02-16T03:58:50.781Z,98.18
2018-02-16T04:01:16.796Z,98.30
2018-02-16T04:03:42.821Z,98.25
2018-02-16T04:06:08.845Z,98.30
2018-02-16T04:08:34.828Z,98.14
2018-02-16T04:11:00.880Z,98.19
2018-02-16T04:13:26.860Z,98.28
2018-02-16T04:15:52.896Z,98.26
2018-02-16T04:18:18.890Z,98.08
2018-02-16T04:20:44.918Z,97.96
2018-02-16T04:23:10.916Z,97.73
2018-02-16T04:25:36.870Z,97.44
2018-02-16T04:28:02.921Z,96.91
2018-02-16T04:30:28.917Z,96.76
2018-02-16T04:32:54.945Z,96.22
2018-02-16T04:35:20.943Z,96.15
2018-02-16T04:37:46.989Z,96.21
2018-02-16T04:40:13.016Z,95.76
2018-02-16T04:42:38.968Z,95.34
2018-02-16T04:45:05.061Z,95.57
2018-02-16T04:47:31.067Z,95.79
2018-02-16T04:49:57.085Z,96.15
2018-02-16T04:52:23.104Z,96.74
2018-02-16T04:54:49.117Z,96.85
2018-02-16T04:57:15.122Z,96.87
2018-02-16T04:59:41.152Z,96.93
2018-02-16T05:02:07.148Z,97.36
2018-02-16T05:04:33.212Z,97.71
2018-02-16T05:06:59.239Z,97.81
2018-02-16T05:09:25.197Z,97.61
2018-02-16T05:11:51.201Z,97.88
2018-02-16T05:14:17.220Z,98.09
2018-02-16T05:16:43.224Z,98.48
2018-02-16T05:19:09.192Z,98.51
2018-02-16T05:21:35.181Z,98.58
2018-02-16T05:24:01.200Z,98.58
2018-02-16T05:26:27.168Z,97.83
2018-02-16T05:28:53.136Z,97.23
2018-02-16T05:31:19.112Z,96.99
2018-02-16T05:33:45.164Z,97.34
2018-02-16T05:36:11.137Z,97.75
2018-02-16T05:38:37.155Z,98.21
2018-02-16T05:41:03.158Z,98.29
2018-02-16T05:43:29.184Z,98.32
2018-02-16T05:45:55.236Z,98.32
2018-02-16T05:48:21.222Z,98.50
2018-02-16T05:50:47.244Z,98.62
2018-02-16T05:53:13.236Z,98.80
2018-02-16T05:55:39.264Z,98.77
2018-02-16T05:58:05.297Z,98.70
2018-02-16T06:00:31.344Z,98.76
2018-02-16T06:02:57.352Z,98.66
2018-02-16T06:05:23.372Z,98.66
2018-02-16T06:07:49.369Z,98.70
2018-02-16T06:10:15.369Z,98.38
2018-02-16T06:12:41.363Z,97.71
2018-02-16T06:15:07.444Z,97.37
2018-02-16T06:17:33.464Z,97.39
2018-02-16T06:19:59.484Z,97.76
2018-02-16T06:22:25.498Z,98.13
2018-02-16T06:24:51.501Z,98.26
2018-02-16T06:27:17.482Z,98.28
2018-02-16T06:29:43.559Z,98.51
2018-02-16T06:32:09.576Z,98.38
2018-02-16T06:34:35.584Z,98.29
2018-02-16T06:37:01.598Z,98.20
2018-02-16T06:39:27.649Z,98.27
2018-02-16T06:41:53.653Z,98.27
2018-02-16T06:44:19.633Z,98.14
2018-02-16T06:46:45.669Z,98.15
2018-02-16T06:49:11.713Z,98.37
2018-02-16T06:51:37.725Z,97.74
2018-02-16T06:54:03.806Z,97.94
2018-02-16T06:56:29.824Z,97.80
2018-02-16T06:58:55.865Z,97.55
2018-02-16T07:01:21.900Z,97.45
2018-02-16T07:03:47.961Z,98.17
2018-02-16T07:06:14.052Z,98.09
2018-02-16T07:08:40.145Z,98.42
2018-02-16T07:11:06.164Z,98.45
2018-02-16T07:13:32.194Z,98.38
2018-02-16T07:15:58.202Z,98.09
2018-02-16T07:18:24.197Z,97.98
2018-02-16T07:20:57.221Z,97.79
2018-02-16T07:23:23.334Z,97.40
2018-02-16T07:25:49.340Z,97.03
2018-02-16T07:28:15.373Z,96.98
2018-02-16T07:30:41.380Z,98.06
2018-02-16T07:33:07.402Z,98.15
2018-02-16T07:35:33.381Z,98.03
2018-02-16T07:37:59.468Z,98.13
2018-02-16T07:40:25.467Z,98.20
2018-02-16T07:42:51.512Z,97.84
2018-02-16T07:45:17.500Z,97.51
2018-02-16T07:47:43.452Z,97.24
2018-02-16T07:50:09.441Z,97.57
2018-02-16T07:52:35.465Z,97.69
2018-02-16T07:55:01.537Z,97.56
2018-02-16T07:57:27.493Z,97.51
2018-02-16T07:59:53.464Z,97.66
2018-02-16T08:02:19.481Z,97.83
2018-02-16T08:04:45.497Z,97.73
2018-02-16T08:07:11.524Z,97.44
2018-02-16T08:09:37.542Z,97.79
2018-02-16T08:12:03.578Z,97.93
2018-02-16T08:14:29.595Z,97.94
2018-02-16T08:16:55.722Z,98.10
2018-02-16T08:19:21.695Z,97.92
2018-02-16T08:21:47.704Z,97.89
2018-02-16T08:24:13.732Z,97.99
2018-02-16T08:26:39.776Z,97.61
2018-02-16T08:29:05.769Z,97.69
2018-02-16T08:31:31.848Z,97.28
2018-02-16T08:33:57.864Z,96.89
2018-02-16T08:36:23.904Z,96.32
2018-02-16T08:38:49.961Z,96.34
2018-02-16T08:41:15.953Z,95.84
2018-02-16T08:43:49.021Z,95.83
2018-02-16T08:46:15.064Z,96.09
2018-02-16T08:48:41.016Z,95.97
2018-02-16T08:51:07.072Z,95.88
2018-02-16T08:53:33.097Z,95.44
2018-02-16T08:55:59.091Z,95.23
2018-02-16T08:58:25.110Z,94.90
2018-02-16T09:00:51.144Z,94.09
2018-02-16T09:03:17.205Z,94.07
2018-02-16T09:05:43.186Z,93.33
2018-02-16T09:08:09.214Z,92.28
2018-02-16T09:10:35.229Z,92.02
2018-02-16T09:13:01.309Z,91.70
2018-02-16T09:15:27.320Z,91.88
2018-02-16T09:17:53.361Z,91.21
2018-02-16T09:20:19.483Z,91.94
2018-02-16T09:22:45.508Z,91.58
2018-02-16T09:25:11.554Z,92.00
2018-02-16T09:27:37.517Z,91.70
2018-02-16T09:30:03.725Z,91.54
2018-02-16T09:32:29.693Z,91.47
2018-02-16T09:34:55.853Z,90.87
2018-02-16T09:37:22.768Z,92.46
2018-02-16T09:39:49.642Z,93.27
2018-02-16T09:42:15.702Z,94.15
2018-02-16T09:44:41.761Z,94.36
2018-02-16T09:47:07.783Z,93.90
2018-02-16T09:49:33.717Z,93.75
2018-02-16T09:51:59.681Z,94.14
2018-02-16T09:54:25.711Z,94.00
2018-02-16T09:56:51.723Z,93.61
2018-02-16T09:59:17.784Z,94.37
2018-02-16T10:01:43.798Z,94.19
2018-02-16T10:04:09.829Z,94.34
2018-02-16T10:06:35.864Z,94.14
2018-02-16T10:09:01.946Z,93.63
2018-02-16T10:11:27.941Z,92.61
2018-02-16T10:13:53.929Z,91.80
2018-02-16T10:16:19.988Z,92.11
2018-02-16T10:18:45.978Z,91.97
2018-02-16T10:21:12.008Z,90.86
2018-02-16T10:23:37.992Z,89.44
2018-02-16T10:26:04.041Z,88.30
2018-02-16T10:28:30.052Z,88.42
2018-02-16T10:30:56.088Z,89.03
2018-02-16T10:33:22.129Z,89.09
2018-02-16T10:35:48.164Z,89.40
2018-02-16T10:38:14.269Z,88.53
2018-02-16T10:40:40.320Z,87.74
2018-02-16T10:43:06.296Z,86.12
2018-02-16T10:45:32.272Z,87.90
2018-02-16T10:47:58.400Z,89.38
2018-02-16T10:50:24.421Z,90.42
2018-02-16T10:52:50.380Z,89.93
2018-02-16T10:55:16.406Z,89.16
2018-02-16T10:57:42.422Z,87.16
2018-02-16T11:00:08.561Z,86.82
2018-02-16T11:02:40.630Z,86.79
2018-02-16T11:05:11.596Z,88.70
2018-02-16T11:07:43.828Z,87.12
2018-02-16T11:10:09.904Z,87.21
2018-02-16T11:12:35.897Z,85.82
2018-02-16T11:15:02.134Z,85.46
2018-02-16T11:17:28.232Z,84.09
2018-02-16T11:19:54.292Z,83.89
2018-02-16T11:22:20.402Z,83.69
2018-02-16T11:24:46.352Z,83.63
2018-02-16T11:27:12.437Z,84.04
2018-02-16T11:29:38.381Z,83.80
2018-02-16T11:32:04.400Z,84.49
2018-02-16T11:34:30.453Z,83.58
2018-02-16T11:36:56.681Z,83.70
2018-02-16T11:39:22.698Z,82.65
2018-02-16T11:41:48.650Z,82.11
2018-02-16T11:44:14.643Z,83.08
2018-02-16T11:46:40.708Z,84.05
2018-02-16T11:49:06.760Z,84.89
2018-02-16T11:51:32.836Z,85.40
2018-02-16T11:53:58.912Z,85.28
2018-02-16T11:56:24.923Z,84.93
2018-02-16T11:58:50.925Z,85.64
2018-02-16T12:01:17.266Z,84.14
2018-02-16T12:03:43.285Z,84.02
2018-02-16T12:06:09.261Z,83.84
2018-02-16T12:08:35.285Z,83.59
2018-02-16T12:11:01.334Z,83.57
2018-02-16T12:13:27.389Z,83.85
2018-02-16T12:15:53.408Z,83.46
2018-02-16T12:18:19.421Z,84.19
2018-02-16T12:20:45.440Z,85.45
2018-02-16T12:23:11.429Z,85.52
2018-02-16T12:25:37.408Z,85.07
2018-02-16T12:28:03.431Z,83.62
2018-02-16T12:30:29.400Z,83.33
2018-02-16T12:32:55.439Z,83.18
2018-02-16T12:35:21.457Z,83.94
2018-02-16T12:37:47.470Z,84.57
2018-02-16T12:40:13.434Z,85.80
2018-02-16T12:42:39.482Z,86.00
2018-02-16T12:45:05.505Z,85.24
2018-02-16T12:47:31.550Z,85.03
2018-02-16T12:49:57.580Z,84.91
2018-02-16T12:52:23.553Z,85.24
2018-02-16T12:54:49.576Z,85.09
2018-02-16T12:57:15.577Z,85.03
2018-02-16T12:59:41.604Z,86.81
2018-02-16T13:02:07.619Z,87.05
2018-02-16T13:04:33.644Z,87.16
2018-02-16T13:06:59.739Z,87.30
2018-02-16T13:09:25.738Z,86.87
2018-02-16T13:11:51.711Z,86.56
2018-02-16T13:14:17.690Z,85.66
2018-02-16T13:16:43.697Z,84.87
2018-02-16T13:19:09.739Z,82.83
2018-02-16T13:21:35.784Z,82.21
2018-02-16T13:24:01.812Z,79.61
2018-02-16T13:26:27.852Z,81.00
2018-02-16T13:28:53.872Z,81.62
2018-02-16T13:31:19.909Z,81.06
2018-02-16T13:33:45.910Z,76.45
2018-02-16T13:36:11.993Z,75.92
2018-02-16T13:38:38.003Z,78.71
2018-02-16T13:41:04.020Z,79.42
2018-02-16T13:43:30.072Z,79.11
2018-02-16T13:45:56.066Z,79.49
2018-02-16T13:48:22.139Z,81.23
2018-02-16T13:50:48.180Z,82.12
2018-02-16T13:53:14.172Z,81.80
2018-02-16T13:55:40.194Z,81.19
2018-02-16T13:58:06.209Z,80.99
2018-02-16T14:00:32.241Z,81.22
2018-02-16T14:02:58.429Z,82.05
2018-02-16T14:05:24.524Z,80.46
2018-02-16T14:07:50.552Z,79.80
2018-02-16T14:10:16.570Z,81.54
2018-02-16T14:12:42.624Z,83.40
2018-02-16T14:15:08.619Z,83.28
2018-02-16T14:17:34.620Z,85.34
2018-02-16T14:20:00.689Z,85.82
2018-02-16T14:22:26.670Z,86.07
2018-02-16T14:24:52.703Z,86.81
2018-02-16T14:27:18.688Z,86.19
2018-02-16T14:29:44.700Z,86.38
2018-02-16T14:32:10.709Z,86.12
2018-02-16T14:34:36.756Z,85.93
2018-02-16T14:37:02.756Z,86.59
2018-02-16T14:39:28.799Z,86.81
2018-02-16T14:41:54.844Z,86.55
2018-02-16T14:46:53.684Z,86.66
2018-02-16T14:49:19.733Z,86.26
2018-02-16T14:51:45.783Z,86.49
2018-02-16T14:54:11.786Z,86.58
2018-02-16T14:56:38.253Z,86.05
2018-02-16T14:59:04.273Z,86.30
2018-02-16T15:01:30.315Z,86.50
2018-02-16T15:03:56.338Z,86.37
2018-02-16T15:06:22.315Z,87.28
2018-02-16T15:08:48.361Z,87.31
2018-02-16T15:11:14.348Z,87.63
2018-02-16T15:13:40.544Z,87.84
2018-02-16T15:16:06.428Z,88.33
2018-02-16T15:18:32.464Z,88.47
2018-02-16T15:20:58.482Z,88.88
2018-02-16T15:23:24.533Z,89.10
2018-02-16T15:25:50.539Z,89.45
2018-02-16T15:28:16.636Z,89.77
2018-02-16T15:30:42.602Z,90.32
2018-02-16T15:33:08.559Z,90.48
2018-02-16T15:35:34.597Z,90.60
2018-02-16T15:38:00.613Z,90.29
2018-02-16T15:40:26.605Z,90.39
2018-02-16T15:42:52.661Z,90.55
2018-02-16T15:45:18.745Z,90.61
2018-02-16T15:47:44.754Z,90.76
2018-02-16T15:50:10.809Z,90.87
2018-02-16T15:52:36.938Z,90.99
2018-02-16T15:55:03.062Z,90.71
2018-02-16T15:57:29.128Z,90.93
2018-02-16T15:59:55.156Z,90.50
2018-02-16T16:02:21.204Z,90.86
2018-02-16T16:04:47.253Z,90.80
2018-02-16T16:07:13.236Z,90.92
2018-02-16T16:09:39.317Z,91.06
2018-02-16T16:12:05.322Z,91.23
2018-02-16T16:14:31.376Z,91.33
2018-02-16T16:16:57.415Z,90.85
2018-02-16T16:19:23.419Z,90.47
2018-02-16T16:21:49.456Z,90.21
2018-02-16T16:24:15.484Z,90.45
2018-02-16T16:26:41.673Z,90.61
2018-02-16T16:29:07.703Z,90.38
2018-02-16T16:31:33.716Z,90.78
2018-02-16T16:33:59.786Z,90.83
2018-02-16T16:36:25.808Z,91.08
2018-02-16T16:38:51.857Z,90.88
2018-02-16T16:41:17.860Z,90.89
2018-02-16T16:43:43.840Z,90.57
2018-02-16T16:46:09.846Z,90.42
2018-02-16T16:48:35.847Z,90.19
2018-02-16T16:51:01.987Z,89.43
2018-02-16T16:53:28.009Z,88.56
2018-02-16T16:55:54.025Z,88.17
2018-02-16T16:58:20.080Z,88.07
2018-02-16T17:00:46.144Z,88.48
2018-02-16T17:03:19.256Z,88.21
2018-02-16T17:05:45.283Z,88.42
2018-02-16T17:08:11.313Z,88.87
2018-02-16T17:10:37.316Z,89.46
2018-02-16T17:13:03.510Z,89.47
2018-02-16T17:15:29.491Z,89.93
2018-02-16T17:17:55.525Z,89.72
2018-02-16T17:20:21.566Z,89.61
2018-02-16T17:22:47.493Z,88.55
2018-02-16T17:25:13.502Z,88.64
2018-02-16T17:27:39.514Z,88.76
2018-02-16T17:30:05.525Z,88.65
2018-02-16T17:32:31.561Z,88.66
2018-02-16T17:34:57.553Z,88.66
2018-02-16T17:37:23.584Z,89.56
2018-02-16T17:39:49.606Z,90.78
2018-02-16T17:42:15.660Z,91.88
2018-02-16T17:44:41.705Z,91.76
2018-02-16T17:47:07.714Z,91.04
2018-02-16T17:49:33.762Z,91.56
2018-02-16T17:51:59.713Z,91.79
2018-02-16T17:54:25.756Z,92.13
2018-02-16T17:56:51.770Z,92.13
2018-02-16T17:59:17.808Z,92.12
2018-02-16T18:01:43.848Z,92.29
2018-02-16T18:04:09.861Z,92.58
2018-02-16T18:06:35.884Z,92.37
2018-02-16T18:09:01.987Z,92.13
2018-02-16T18:11:28.060Z,91.56
2018-02-16T18:13:54.071Z,91.42
2018-02-16T18:16:20.389Z,91.81
2018-02-16T18:18:46.385Z,91.65
2018-02-16T18:21:12.400Z,91.27
2018-02-16T18:23:38.448Z,92.08
2018-02-16T18:26:04.534Z,92.23
2018-02-16T18:28:30.597Z,92.44
2018-02-16T18:30:56.649Z,92.83
2018-02-16T18:33:22.788Z,93.21
2018-02-16T18:35:48.841Z,93.37
2018-02-16T18:38:14.858Z,93.14
2018-02-16T18:40:40.857Z,92.74
2018-02-16T18:43:06.881Z,91.16
2018-02-16T18:45:32.937Z,90.83
2018-02-16T18:47:58.926Z,90.86
2018-02-16T18:50:24.956Z,92.06
2018-02-16T18:52:51.001Z,92.05
2018-02-16T18:55:17.049Z,91.58
2018-02-16T18:57:43.099Z,91.42
2018-02-16T19:00:09.117Z,91.11
2018-02-16T19:02:35.154Z,91.18
2018-02-16T19:05:01.210Z,91.23
2018-02-16T19:07:27.223Z,91.29
2018-02-16T19:09:53.231Z,91.45
2018-02-16T19:12:19.225Z,91.49
2018-02-16T19:14:45.208Z,91.43
2018-02-16T19:17:11.200Z,91.36
2018-02-16T19:19:37.436Z,91.26
2018-02-16T19:22:03.417Z,91.30
2018-02-16T19:24:29.488Z,91.47
2018-02-16T19:26:55.514Z,91.57
2018-02-16T19:29:21.532Z,91.58
2018-02-16T19:31:47.641Z,91.81
2018-02-16T19:34:13.669Z,91.84
2018-02-16T19:36:39.638Z,91.74
2018-02-16T19:39:05.637Z,91.97
2018-02-16T19:41:31.664Z,92.07
2018-02-16T19:43:57.701Z,92.41
2018-02-16T19:46:23.718Z,92.44
2018-02-16T19:48:50.127Z,92.49
2018-02-16T19:51:16.270Z,92.83
2018-02-16T19:53:42.398Z,93.42
2018-02-16T19:56:08.596Z,94.19
2018-02-16T19:58:34.663Z,93.98
2018-02-16T20:01:00.741Z,93.92
2018-02-16T20:03:26.739Z,93.63
2018-02-16T20:05:52.746Z,93.54
2018-02-16T20:08:18.876Z,93.24
2018-02-16T20:10:44.881Z,93.29
2018-02-16T20:13:11.090Z,93.46
2018-02-16T20:15:37.124Z,93.29
2018-02-16T20:18:03.223Z,93.11
2018-02-16T20:20:29.272Z,92.90
2018-02-16T20:22:55.348Z,92.95
2018-02-16T20:25:21.419Z,93.02
2018-02-16T20:27:47.458Z,92.87
2018-02-16T20:30:13.582Z,92.89
2018-02-16T20:32:39.587Z,92.79
2018-02-16T20:35:05.641Z,92.84
2018-02-16T20:37:31.968Z,92.82
2018-02-16T20:40:00.278Z,92.49
2018-02-16T20:42:26.408Z,92.29
2018-02-16T20:44:53.319Z,92.49
2018-02-16T20:47:19.392Z,92.49
2018-02-16T20:49:45.492Z,92.19
2018-02-16T20:52:11.555Z,92.10
2018-02-16T20:54:37.660Z,92.30
2018-02-16T20:57:03.828Z,92.34
2018-02-16T20:59:29.824Z,92.38
2018-02-16T21:01:55.892Z,92.32
2018-02-16T21:04:21.918Z,92.35
2018-02-16T21:06:48.003Z,92.18
2018-02-16T21:09:14.114Z,92.21
2018-02-16T21:11:40.204Z,92.43
2018-02-16T21:14:06.291Z,92.47
2018-02-16T21:16:32.347Z,92.26
2018-02-16T21:18:58.425Z,92.10
2018-02-16T21:21:24.432Z,91.99
2018-02-16T21:23:50.511Z,92.14
2018-02-16T21:26:16.772Z,92.83
2018-02-16T21:28:43.189Z,92.95
2018-02-16T21:31:09.310Z,92.64
2018-02-16T21:33:35.347Z,92.24
2018-02-16T21:36:01.657Z,92.41
2018-02-16T21:38:27.751Z,92.36
2018-02-16T21:40:53.803Z,92.74
2018-02-16T21:43:19.830Z,92.59
2018-02-16T21:45:45.910Z,92.48
2018-02-16T21:48:12.175Z,92.14
2018-02-16T21:50:38.202Z,92.66
2018-02-16T21:53:04.266Z,93.45
2018-02-16T21:55:30.312Z,93.70
2018-02-16T21:57:56.353Z,94.19
2018-02-16T22:00:22.475Z,93.89
2018-02-16T22:02:48.613Z,93.67
2018-02-16T22:05:14.637Z,93.21
2018-02-16T22:07:40.753Z,93.01
2018-02-16T22:10:07.088Z,92.80
2018-02-16T22:12:33.181Z,92.22
2018-02-16T22:14:59.313Z,92.96
2018-02-16T22:17:25.342Z,93.55
2018-02-16T22:19:51.377Z,93.57
2018-02-16T22:22:17.500Z,93.70
2018-02-16T22:24:43.557Z,94.00
2018-02-16T22:27:09.917Z,94.13
2018-02-16T22:29:35.937Z,94.16
2018-02-16T22:32:01.997Z,94.49
2018-02-16T22:34:28.122Z,94.25
2018-02-16T22:36:54.198Z,95.03
2018-02-16T22:42:12.986Z,95.67
2018-02-16T22:44:38.968Z,95.87
2018-02-16T22:47:05.026Z,95.91
2018-02-16T22:49:31.065Z,96.09
2018-02-16T22:51:57.142Z,96.17
2018-02-16T22:54:23.311Z,96.95
2018-02-16T22:56:49.458Z,96.89
2018-02-16T22:59:15.510Z,96.74
2018-02-16T23:01:41.529Z,96.56
2018-02-16T23:04:07.562Z,96.46
2018-02-16T23:06:33.584Z,95.95
2018-02-16T23:08:59.608Z,95.90
2018-02-16T23:11:25.625Z,96.04
2018-02-16T23:13:51.616Z,95.92
2018-02-16T23:16:17.904Z,95.31
2018-02-16T23:18:43.934Z,94.89
2018-02-16T23:21:10.124Z,94.72
2018-02-16T23:23:36.181Z,94.92
2018-02-16T23:26:02.226Z,95.14
2018-02-16T23:28:28.249Z,95.12
2018-02-16T23:30:54.483Z,95.19
2018-02-16T23:33:20.498Z,95.38
2018-02-16T23:35:46.855Z,96.01
2018-02-16T23:38:12.890Z,96.17
2018-02-16T23:40:38.917Z,96.90
2018-02-16T23:43:05.102Z,97.18
2018-02-16T23:45:31.601Z,97.78
2018-02-16T23:47:57.717Z,97.93
2018-02-16T23:50:23.824Z,98.33
2018-02-16T23:52:49.874Z,98.39
2018-02-16T23:55:15.905Z,98.29
2018-02-16T23:57:41.980Z,98.20
